sensor_id;sensor_type;location;lat;lon;timestamp;P1;durP1;ratioP1;P2;durP2;ratioP2
15425;SDS011;7812;50.072;7.036;2022-09-09T00:02:04;8.13;;;2.73;;
15425;SDS011;7812;50.072;7.036;2022-09-09T00:15:42;2.50;;;1.73;;
15425;SDS011;7812;50.072;7.036;2022-09-09T00:23:32;2.00;;;1.57;;
15425;SDS011;7812;50.072;7.036;2022-09-09T00:28:46;5.93;;;2.10;;
15425;SDS011;7812;50.072;7.036;2022-09-09T00:31:26;3.17;;;1.50;;
15425;SDS011;7812;50.072;7.036;2022-09-09T00:33:53;1.40;;;1.30;;
15425;SDS011;7812;50.072;7.036;2022-09-09T00:36:24;3.73;;;1.60;;
15425;SDS011;7812;50.072;7.036;2022-09-09T00:38:57;8.53;;;1.83;;
15425;SDS011;7812;50.072;7.036;2022-09-09T00:44:34;2.17;;;1.40;;
15425;SDS011;7812;50.072;7.036;2022-09-09T00:53:05;3.83;;;1.77;;
15425;SDS011;7812;50.072;7.036;2022-09-09T00:58:16;10.83;;;2.33;;
15425;SDS011;7812;50.072;7.036;2022-09-09T01:00:43;12.27;;;2.97;;
15425;SDS011;7812;50.072;7.036;2022-09-09T01:06:32;17.27;;;2.80;;
15425;SDS011;7812;50.072;7.036;2022-09-09T01:12:01;47.07;;;5.47;;
15425;SDS011;7812;50.072;7.036;2022-09-09T01:14:50;7.70;;;1.90;;
15425;SDS011;7812;50.072;7.036;2022-09-09T01:17:31;2.90;;;1.53;;
15425;SDS011;7812;50.072;7.036;2022-09-09T01:28:59;3.23;;;1.17;;
15425;SDS011;7812;50.072;7.036;2022-09-09T01:34:31;2.53;;;1.47;;
15425;SDS011;7812;50.072;7.036;2022-09-09T01:37:07;2.47;;;1.50;;
15425;SDS011;7812;50.072;7.036;2022-09-09T01:39:36;9.27;;;1.80;;
15425;SDS011;7812;50.072;7.036;2022-09-09T01:42:04;4.70;;;1.80;;
15425;SDS011;7812;50.072;7.036;2022-09-09T01:44:32;2.70;;;1.63;;
15425;SDS011;7812;50.072;7.036;2022-09-09T01:47:00;1.83;;;1.43;;
15425;SDS011;7812;50.072;7.036;2022-09-09T01:49:26;4.53;;;1.67;;
15425;SDS011;7812;50.072;7.036;2022-09-09T01:51:53;2.17;;;1.60;;
15425;SDS011;7812;50.072;7.036;2022-09-09T01:54:20;3.27;;;1.40;;
15425;SDS011;7812;50.072;7.036;2022-09-09T02:02:55;3.50;;;1.40;;
15425;SDS011;7812;50.072;7.036;2022-09-09T02:05:44;1.33;;;1.20;;
15425;SDS011;7812;50.072;7.036;2022-09-09T02:08:26;2.30;;;1.30;;
15425;SDS011;7812;50.072;7.036;2022-09-09T02:11:14;2.87;;;1.27;;
15425;SDS011;7812;50.072;7.036;2022-09-09T02:13:45;3.20;;;1.37;;
15425;SDS011;7812;50.072;7.036;2022-09-09T02:16:15;2.53;;;1.30;;
15425;SDS011;7812;50.072;7.036;2022-09-09T02:21:29;1.70;;;1.10;;
15425;SDS011;7812;50.072;7.036;2022-09-09T02:23:57;4.50;;;1.30;;
15425;SDS011;7812;50.072;7.036;2022-09-09T02:26:25;2.63;;;1.40;;
15425;SDS011;7812;50.072;7.036;2022-09-09T02:28:52;2.33;;;1.23;;
15425;SDS011;7812;50.072;7.036;2022-09-09T02:31:21;2.37;;;1.23;;
15425;SDS011;7812;50.072;7.036;2022-09-09T02:33:52;5.57;;;1.63;;
15425;SDS011;7812;50.072;7.036;2022-09-09T02:36:22;3.70;;;1.33;;
15425;SDS011;7812;50.072;7.036;2022-09-09T02:38:50;2.90;;;1.40;;
15425;SDS011;7812;50.072;7.036;2022-09-09T02:41:20;2.10;;;1.30;;
15425;SDS011;7812;50.072;7.036;2022-09-09T02:43:49;1.70;;;1.10;;
15425;SDS011;7812;50.072;7.036;2022-09-09T02:54:27;1.53;;;1.23;;
15425;SDS011;7812;50.072;7.036;2022-09-09T02:56:55;2.10;;;1.20;;
15425;SDS011;7812;50.072;7.036;2022-09-09T02:59:30;2.67;;;1.00;;
15425;SDS011;7812;50.072;7.036;2022-09-09T03:01:56;1.77;;;1.20;;
15425;SDS011;7812;50.072;7.036;2022-09-09T03:04:22;3.47;;;1.50;;
15425;SDS011;7812;50.072;7.036;2022-09-09T03:06:49;2.23;;;1.40;;
15425;SDS011;7812;50.072;7.036;2022-09-09T03:09:16;2.07;;;1.40;;
15425;SDS011;7812;50.072;7.036;2022-09-09T03:11:42;2.23;;;1.60;;
15425;SDS011;7812;50.072;7.036;2022-09-09T03:14:07;1.13;;;1.00;;
15425;SDS011;7812;50.072;7.036;2022-09-09T03:16:33;2.07;;;1.20;;
15425;SDS011;7812;50.072;7.036;2022-09-09T03:18:59;2.63;;;1.13;;
15425;SDS011;7812;50.072;7.036;2022-09-09T03:21:25;2.93;;;1.43;;
15425;SDS011;7812;50.072;7.036;2022-09-09T03:23:51;2.07;;;1.30;;
15425;SDS011;7812;50.072;7.036;2022-09-09T03:26:17;1.90;;;1.10;;
15425;SDS011;7812;50.072;7.036;2022-09-09T03:28:43;2.53;;;1.40;;
15425;SDS011;7812;50.072;7.036;2022-09-09T03:31:10;1.50;;;1.40;;
15425;SDS011;7812;50.072;7.036;2022-09-09T03:33:36;2.90;;;1.23;;
15425;SDS011;7812;50.072;7.036;2022-09-09T03:36:08;5.10;;;1.27;;
15425;SDS011;7812;50.072;7.036;2022-09-09T03:38:35;5.00;;;1.40;;
15425;SDS011;7812;50.072;7.036;2022-09-09T03:41:01;1.63;;;1.30;;
15425;SDS011;7812;50.072;7.036;2022-09-09T03:43:27;2.70;;;1.20;;
15425;SDS011;7812;50.072;7.036;2022-09-09T03:45:54;2.87;;;1.50;;
15425;SDS011;7812;50.072;7.036;2022-09-09T03:48:23;3.03;;;1.47;;
15425;SDS011;7812;50.072;7.036;2022-09-09T03:50:50;4.20;;;1.40;;
15425;SDS011;7812;50.072;7.036;2022-09-09T03:53:18;1.70;;;1.10;;
15425;SDS011;7812;50.072;7.036;2022-09-09T03:55:46;3.80;;;1.30;;
15425;SDS011;7812;50.072;7.036;2022-09-09T03:58:15;3.77;;;1.20;;
15425;SDS011;7812;50.072;7.036;2022-09-09T04:00:44;4.23;;;1.60;;
15425;SDS011;7812;50.072;7.036;2022-09-09T04:03:44;2.40;;;1.40;;
15425;SDS011;7812;50.072;7.036;2022-09-09T04:06:10;1.83;;;1.17;;
15425;SDS011;7812;50.072;7.036;2022-09-09T04:08:38;2.30;;;1.20;;
15425;SDS011;7812;50.072;7.036;2022-09-09T04:11:04;3.27;;;1.20;;
15425;SDS011;7812;50.072;7.036;2022-09-09T04:13:31;6.17;;;1.50;;
15425;SDS011;7812;50.072;7.036;2022-09-09T04:16:00;1.30;;;1.10;;
15425;SDS011;7812;50.072;7.036;2022-09-09T04:18:28;2.27;;;1.30;;
15425;SDS011;7812;50.072;7.036;2022-09-09T04:20:54;4.50;;;1.40;;
15425;SDS011;7812;50.072;7.036;2022-09-09T04:23:22;2.70;;;1.30;;
15425;SDS011;7812;50.072;7.036;2022-09-09T04:25:50;2.93;;;1.30;;
15425;SDS011;7812;50.072;7.036;2022-09-09T04:28:17;1.30;;;1.20;;
15425;SDS011;7812;50.072;7.036;2022-09-09T04:30:44;2.57;;;1.30;;
15425;SDS011;7812;50.072;7.036;2022-09-09T04:33:12;2.90;;;1.37;;
15425;SDS011;7812;50.072;7.036;2022-09-09T04:35:39;3.43;;;1.30;;
15425;SDS011;7812;50.072;7.036;2022-09-09T04:38:10;2.03;;;1.30;;
15425;SDS011;7812;50.072;7.036;2022-09-09T04:40:36;2.27;;;1.70;;
15425;SDS011;7812;50.072;7.036;2022-09-09T04:43:02;2.33;;;1.50;;
15425;SDS011;7812;50.072;7.036;2022-09-09T04:45:31;2.50;;;1.37;;
15425;SDS011;7812;50.072;7.036;2022-09-09T04:47:57;3.20;;;1.47;;
15425;SDS011;7812;50.072;7.036;2022-09-09T04:50:23;4.83;;;1.80;;
15425;SDS011;7812;50.072;7.036;2022-09-09T04:52:48;2.73;;;1.60;;
15425;SDS011;7812;50.072;7.036;2022-09-09T04:55:14;2.63;;;1.40;;
15425;SDS011;7812;50.072;7.036;2022-09-09T04:57:40;3.97;;;1.70;;
15425;SDS011;7812;50.072;7.036;2022-09-09T05:00:06;3.73;;;1.60;;
15425;SDS011;7812;50.072;7.036;2022-09-09T05:02:33;2.10;;;1.37;;
15425;SDS011;7812;50.072;7.036;2022-09-09T05:05:02;2.70;;;1.20;;
15425;SDS011;7812;50.072;7.036;2022-09-09T05:07:30;1.70;;;1.17;;
15425;SDS011;7812;50.072;7.036;2022-09-09T05:09:56;2.03;;;1.30;;
15425;SDS011;7812;50.072;7.036;2022-09-09T05:12:22;4.07;;;1.50;;
15425;SDS011;7812;50.072;7.036;2022-09-09T05:14:50;3.53;;;1.50;;
15425;SDS011;7812;50.072;7.036;2022-09-09T05:17:17;2.53;;;1.10;;
15425;SDS011;7812;50.072;7.036;2022-09-09T05:19:43;2.77;;;1.30;;
15425;SDS011;7812;50.072;7.036;2022-09-09T05:22:09;2.70;;;1.37;;
15425;SDS011;7812;50.072;7.036;2022-09-09T05:24:36;2.93;;;1.47;;
15425;SDS011;7812;50.072;7.036;2022-09-09T05:27:03;3.47;;;1.60;;
15425;SDS011;7812;50.072;7.036;2022-09-09T05:29:31;1.63;;;1.40;;
15425;SDS011;7812;50.072;7.036;2022-09-09T05:31:58;3.23;;;1.47;;
15425;SDS011;7812;50.072;7.036;2022-09-09T05:34:24;2.73;;;1.40;;
15425;SDS011;7812;50.072;7.036;2022-09-09T05:36:50;3.13;;;1.47;;
15425;SDS011;7812;50.072;7.036;2022-09-09T05:39:17;6.27;;;1.93;;
15425;SDS011;7812;50.072;7.036;2022-09-09T05:41:43;4.03;;;1.93;;
15425;SDS011;7812;50.072;7.036;2022-09-09T05:44:08;3.10;;;1.40;;
15425;SDS011;7812;50.072;7.036;2022-09-09T05:46:34;1.70;;;1.30;;
15425;SDS011;7812;50.072;7.036;2022-09-09T05:49:00;3.83;;;2.00;;
15425;SDS011;7812;50.072;7.036;2022-09-09T05:51:27;2.40;;;1.67;;
15425;SDS011;7812;50.072;7.036;2022-09-09T05:53:55;3.87;;;1.43;;
15425;SDS011;7812;50.072;7.036;2022-09-09T05:56:24;3.30;;;1.60;;
15425;SDS011;7812;50.072;7.036;2022-09-09T05:58:51;3.30;;;1.60;;
15425;SDS011;7812;50.072;7.036;2022-09-09T06:01:28;5.27;;;2.00;;
15425;SDS011;7812;50.072;7.036;2022-09-09T06:03:57;7.13;;;1.90;;
15425;SDS011;7812;50.072;7.036;2022-09-09T06:06:24;2.90;;;1.70;;
15425;SDS011;7812;50.072;7.036;2022-09-09T06:08:52;2.50;;;1.60;;
15425;SDS011;7812;50.072;7.036;2022-09-09T06:13:52;3.40;;;1.60;;
15425;SDS011;7812;50.072;7.036;2022-09-09T06:16:20;2.13;;;1.50;;
15425;SDS011;7812;50.072;7.036;2022-09-09T06:18:48;5.70;;;1.80;;
15425;SDS011;7812;50.072;7.036;2022-09-09T06:21:16;2.37;;;1.57;;
15425;SDS011;7812;50.072;7.036;2022-09-09T06:23:44;1.50;;;1.40;;
15425;SDS011;7812;50.072;7.036;2022-09-09T06:28:48;2.83;;;1.50;;
15425;SDS011;7812;50.072;7.036;2022-09-09T06:31:16;2.40;;;1.30;;
15425;SDS011;7812;50.072;7.036;2022-09-09T06:33:46;3.90;;;1.20;;
15425;SDS011;7812;50.072;7.036;2022-09-09T06:36:14;3.27;;;1.57;;
15425;SDS011;7812;50.072;7.036;2022-09-09T06:38:50;8.30;;;1.87;;
15425;SDS011;7812;50.072;7.036;2022-09-09T06:41:17;6.27;;;1.50;;
15425;SDS011;7812;50.072;7.036;2022-09-09T06:43:47;5.43;;;1.43;;
15425;SDS011;7812;50.072;7.036;2022-09-09T06:46:17;15.73;;;3.17;;
15425;SDS011;7812;50.072;7.036;2022-09-09T06:48:44;19.47;;;2.83;;
15425;SDS011;7812;50.072;7.036;2022-09-09T06:51:11;17.10;;;3.17;;
15425;SDS011;7812;50.072;7.036;2022-09-09T06:53:39;12.77;;;2.60;;
15425;SDS011;7812;50.072;7.036;2022-09-09T06:58:44;8.23;;;2.03;;
15425;SDS011;7812;50.072;7.036;2022-09-09T07:01:11;3.27;;;1.47;;
15425;SDS011;7812;50.072;7.036;2022-09-09T07:03:39;5.37;;;1.70;;
15425;SDS011;7812;50.072;7.036;2022-09-09T07:06:05;5.40;;;1.33;;
15425;SDS011;7812;50.072;7.036;2022-09-09T07:08:32;3.60;;;1.57;;
15425;SDS011;7812;50.072;7.036;2022-09-09T07:11:03;5.43;;;2.10;;
15425;SDS011;7812;50.072;7.036;2022-09-09T07:13:32;3.70;;;1.63;;
15425;SDS011;7812;50.072;7.036;2022-09-09T07:16:05;3.97;;;1.40;;
15425;SDS011;7812;50.072;7.036;2022-09-09T07:18:32;4.73;;;1.63;;
15425;SDS011;7812;50.072;7.036;2022-09-09T07:20:59;4.57;;;1.70;;
15425;SDS011;7812;50.072;7.036;2022-09-09T07:23:27;4.87;;;1.50;;
15425;SDS011;7812;50.072;7.036;2022-09-09T07:25:53;4.47;;;1.50;;
15425;SDS011;7812;50.072;7.036;2022-09-09T07:28:20;7.63;;;1.80;;
15425;SDS011;7812;50.072;7.036;2022-09-09T07:30:53;6.97;;;1.80;;
15425;SDS011;7812;50.072;7.036;2022-09-09T07:33:20;4.60;;;1.53;;
15425;SDS011;7812;50.072;7.036;2022-09-09T07:35:46;3.93;;;1.80;;
15425;SDS011;7812;50.072;7.036;2022-09-09T07:38:12;3.83;;;1.53;;
15425;SDS011;7812;50.072;7.036;2022-09-09T07:40:38;5.53;;;2.00;;
15425;SDS011;7812;50.072;7.036;2022-09-09T07:43:04;4.83;;;1.60;;
15425;SDS011;7812;50.072;7.036;2022-09-09T07:45:30;4.33;;;1.30;;
15425;SDS011;7812;50.072;7.036;2022-09-09T07:47:57;5.20;;;1.43;;
15425;SDS011;7812;50.072;7.036;2022-09-09T07:50:23;7.47;;;2.27;;
15425;SDS011;7812;50.072;7.036;2022-09-09T07:52:50;5.63;;;1.60;;
15425;SDS011;7812;50.072;7.036;2022-09-09T07:55:16;5.43;;;1.67;;
15425;SDS011;7812;50.072;7.036;2022-09-09T07:57:42;3.90;;;1.67;;
15425;SDS011;7812;50.072;7.036;2022-09-09T08:00:08;6.50;;;1.67;;
15425;SDS011;7812;50.072;7.036;2022-09-09T08:02:35;3.43;;;1.63;;
15425;SDS011;7812;50.072;7.036;2022-09-09T08:05:01;7.33;;;2.33;;
15425;SDS011;7812;50.072;7.036;2022-09-09T08:07:27;5.40;;;2.07;;
15425;SDS011;7812;50.072;7.036;2022-09-09T08:09:53;5.60;;;1.40;;
15425;SDS011;7812;50.072;7.036;2022-09-09T08:12:20;4.13;;;1.60;;
15425;SDS011;7812;50.072;7.036;2022-09-09T08:14:46;5.60;;;1.70;;
15425;SDS011;7812;50.072;7.036;2022-09-09T08:17:13;4.80;;;1.60;;
15425;SDS011;7812;50.072;7.036;2022-09-09T08:19:39;6.63;;;1.57;;
15425;SDS011;7812;50.072;7.036;2022-09-09T08:22:05;4.40;;;1.37;;
15425;SDS011;7812;50.072;7.036;2022-09-09T08:24:32;2.87;;;1.33;;
15425;SDS011;7812;50.072;7.036;2022-09-09T08:26:58;4.03;;;1.60;;
15425;SDS011;7812;50.072;7.036;2022-09-09T08:29:24;5.10;;;2.20;;
15425;SDS011;7812;50.072;7.036;2022-09-09T08:31:54;2.93;;;1.40;;
15425;SDS011;7812;50.072;7.036;2022-09-09T08:34:22;5.03;;;1.70;;
15425;SDS011;7812;50.072;7.036;2022-09-09T08:36:49;4.07;;;1.30;;
15425;SDS011;7812;50.072;7.036;2022-09-09T08:39:17;4.90;;;1.60;;
15425;SDS011;7812;50.072;7.036;2022-09-09T08:52:30;6.27;;;1.40;;
15425;SDS011;7812;50.072;7.036;2022-09-09T08:55:08;4.20;;;2.00;;
15425;SDS011;7812;50.072;7.036;2022-09-09T08:57:38;4.23;;;1.50;;
15425;SDS011;7812;50.072;7.036;2022-09-09T09:00:04;3.83;;;1.40;;
15425;SDS011;7812;50.072;7.036;2022-09-09T09:05:09;3.43;;;1.10;;
15425;SDS011;7812;50.072;7.036;2022-09-09T09:10:56;4.40;;;1.47;;
15425;SDS011;7812;50.072;7.036;2022-09-09T09:13:28;4.33;;;1.30;;
15425;SDS011;7812;50.072;7.036;2022-09-09T09:15:59;5.60;;;1.80;;
15425;SDS011;7812;50.072;7.036;2022-09-09T09:18:31;4.13;;;1.20;;
15425;SDS011;7812;50.072;7.036;2022-09-09T09:26:41;3.60;;;1.30;;
15425;SDS011;7812;50.072;7.036;2022-09-09T09:29:12;4.30;;;1.63;;
15425;SDS011;7812;50.072;7.036;2022-09-09T09:31:42;5.97;;;1.43;;
15425;SDS011;7812;50.072;7.036;2022-09-09T09:34:20;4.90;;;1.57;;
15425;SDS011;7812;50.072;7.036;2022-09-09T09:36:52;2.67;;;1.20;;
15425;SDS011;7812;50.072;7.036;2022-09-09T09:41:55;5.43;;;1.50;;
15425;SDS011;7812;50.072;7.036;2022-09-09T09:44:26;5.17;;;1.57;;
15425;SDS011;7812;50.072;7.036;2022-09-09T09:47:13;5.20;;;1.90;;
15425;SDS011;7812;50.072;7.036;2022-09-09T09:49:59;4.97;;;1.50;;
15425;SDS011;7812;50.072;7.036;2022-09-09T09:52:28;5.43;;;1.57;;
15425;SDS011;7812;50.072;7.036;2022-09-09T09:54:56;4.07;;;1.70;;
15425;SDS011;7812;50.072;7.036;2022-09-09T09:57:28;5.17;;;1.60;;
15425;SDS011;7812;50.072;7.036;2022-09-09T10:00:03;2.53;;;1.17;;
15425;SDS011;7812;50.072;7.036;2022-09-09T10:02:39;3.83;;;1.53;;
15425;SDS011;7812;50.072;7.036;2022-09-09T10:08:13;5.13;;;1.63;;
15425;SDS011;7812;50.072;7.036;2022-09-09T10:16:21;4.07;;;1.83;;
15425;SDS011;7812;50.072;7.036;2022-09-09T10:19:01;4.40;;;1.80;;
15425;SDS011;7812;50.072;7.036;2022-09-09T10:35:58;2.67;;;1.10;;
15425;SDS011;7812;50.072;7.036;2022-09-09T10:38:39;4.83;;;1.40;;
15425;SDS011;7812;50.072;7.036;2022-09-09T10:47:26;4.67;;;1.43;;
15425;SDS011;7812;50.072;7.036;2022-09-09T10:51:01;3.27;;;1.67;;
15425;SDS011;7812;50.072;7.036;2022-09-09T10:56:10;2.50;;;1.30;;
15425;SDS011;7812;50.072;7.036;2022-09-09T10:58:42;2.63;;;1.20;;
15425;SDS011;7812;50.072;7.036;2022-09-09T11:03:49;3.47;;;1.20;;
15425;SDS011;7812;50.072;7.036;2022-09-09T11:06:22;2.97;;;1.00;;
15425;SDS011;7812;50.072;7.036;2022-09-09T11:09:01;2.30;;;1.00;;
15425;SDS011;7812;50.072;7.036;2022-09-09T11:14:05;2.97;;;0.90;;
15425;SDS011;7812;50.072;7.036;2022-09-09T11:19:15;5.90;;;1.20;;
15425;SDS011;7812;50.072;7.036;2022-09-09T11:22:02;2.20;;;1.03;;
15425;SDS011;7812;50.072;7.036;2022-09-09T11:24:50;3.47;;;0.93;;
15425;SDS011;7812;50.072;7.036;2022-09-09T11:27:38;2.40;;;1.00;;
15425;SDS011;7812;50.072;7.036;2022-09-09T11:30:45;3.90;;;0.80;;
15425;SDS011;7812;50.072;7.036;2022-09-09T11:33:38;1.80;;;1.00;;
15425;SDS011;7812;50.072;7.036;2022-09-09T11:36:36;1.93;;;0.70;;
15425;SDS011;7812;50.072;7.036;2022-09-09T11:41:41;2.50;;;0.93;;
15425;SDS011;7812;50.072;7.036;2022-09-09T11:44:11;3.73;;;1.10;;
15425;SDS011;7812;50.072;7.036;2022-09-09T11:46:49;2.50;;;0.90;;
15425;SDS011;7812;50.072;7.036;2022-09-09T11:55:08;1.30;;;0.67;;
15425;SDS011;7812;50.072;7.036;2022-09-09T11:58:16;3.10;;;1.20;;
15425;SDS011;7812;50.072;7.036;2022-09-09T12:00:44;3.50;;;1.03;;
15425;SDS011;7812;50.072;7.036;2022-09-09T12:06:09;2.17;;;1.10;;
15425;SDS011;7812;50.072;7.036;2022-09-09T12:08:57;3.50;;;1.00;;
15425;SDS011;7812;50.072;7.036;2022-09-09T12:11:53;3.03;;;1.20;;
15425;SDS011;7812;50.072;7.036;2022-09-09T12:14:37;1.63;;;0.90;;
15425;SDS011;7812;50.072;7.036;2022-09-09T12:19:41;2.60;;;1.20;;
15425;SDS011;7812;50.072;7.036;2022-09-09T12:22:27;1.30;;;0.90;;
15425;SDS011;7812;50.072;7.036;2022-09-09T12:25:18;2.77;;;1.00;;
15425;SDS011;7812;50.072;7.036;2022-09-09T12:28:04;2.10;;;1.00;;
15425;SDS011;7812;50.072;7.036;2022-09-09T12:30:59;2.53;;;0.83;;
15425;SDS011;7812;50.072;7.036;2022-09-09T12:33:36;3.63;;;1.30;;
15425;SDS011;7812;50.072;7.036;2022-09-09T12:36:12;2.90;;;1.30;;
15425;SDS011;7812;50.072;7.036;2022-09-09T12:38:58;3.80;;;1.10;;
15425;SDS011;7812;50.072;7.036;2022-09-09T12:41:40;1.70;;;0.70;;
15425;SDS011;7812;50.072;7.036;2022-09-09T12:44:08;1.47;;;0.80;;
15425;SDS011;7812;50.072;7.036;2022-09-09T12:46:36;2.00;;;0.90;;
15425;SDS011;7812;50.072;7.036;2022-09-09T12:51:51;2.63;;;1.00;;
15425;SDS011;7812;50.072;7.036;2022-09-09T12:54:17;2.67;;;1.10;;
15425;SDS011;7812;50.072;7.036;2022-09-09T12:56:45;2.13;;;1.03;;
15425;SDS011;7812;50.072;7.036;2022-09-09T12:59:35;2.23;;;0.90;;
15425;SDS011;7812;50.072;7.036;2022-09-09T13:02:26;2.40;;;1.03;;
15425;SDS011;7812;50.072;7.036;2022-09-09T13:04:52;1.67;;;0.90;;
15425;SDS011;7812;50.072;7.036;2022-09-09T13:07:19;2.37;;;1.17;;
15425;SDS011;7812;50.072;7.036;2022-09-09T13:09:47;1.33;;;0.70;;
15425;SDS011;7812;50.072;7.036;2022-09-09T13:12:15;1.60;;;0.73;;
15425;SDS011;7812;50.072;7.036;2022-09-09T13:14:44;2.60;;;0.83;;
15425;SDS011;7812;50.072;7.036;2022-09-09T13:17:22;1.30;;;0.57;;
15425;SDS011;7812;50.072;7.036;2022-09-09T13:19:50;1.87;;;0.87;;
15425;SDS011;7812;50.072;7.036;2022-09-09T13:25:05;1.87;;;0.80;;
15425;SDS011;7812;50.072;7.036;2022-09-09T13:35:53;2.53;;;0.70;;
15425;SDS011;7812;50.072;7.036;2022-09-09T13:38:24;1.60;;;0.77;;
15425;SDS011;7812;50.072;7.036;2022-09-09T13:40:54;4.43;;;1.13;;
15425;SDS011;7812;50.072;7.036;2022-09-09T13:43:27;1.40;;;0.67;;
15425;SDS011;7812;50.072;7.036;2022-09-09T13:45:55;2.87;;;0.80;;
15425;SDS011;7812;50.072;7.036;2022-09-09T13:48:23;1.87;;;0.60;;
15425;SDS011;7812;50.072;7.036;2022-09-09T13:50:54;1.03;;;0.67;;
15425;SDS011;7812;50.072;7.036;2022-09-09T13:53:29;1.23;;;0.60;;
15425;SDS011;7812;50.072;7.036;2022-09-09T13:55:55;2.27;;;0.90;;
15425;SDS011;7812;50.072;7.036;2022-09-09T13:58:22;3.97;;;1.20;;
15425;SDS011;7812;50.072;7.036;2022-09-09T14:00:48;1.93;;;0.73;;
15425;SDS011;7812;50.072;7.036;2022-09-09T14:03:14;2.33;;;0.90;;
15425;SDS011;7812;50.072;7.036;2022-09-09T14:05:41;2.73;;;1.17;;
15425;SDS011;7812;50.072;7.036;2022-09-09T14:08:07;2.10;;;0.90;;
15425;SDS011;7812;50.072;7.036;2022-09-09T14:10:41;1.57;;;1.00;;
15425;SDS011;7812;50.072;7.036;2022-09-09T14:13:06;2.13;;;1.03;;
15425;SDS011;7812;50.072;7.036;2022-09-09T14:15:33;2.83;;;1.10;;
15425;SDS011;7812;50.072;7.036;2022-09-09T14:17:58;3.90;;;1.20;;
15425;SDS011;7812;50.072;7.036;2022-09-09T14:20:24;4.27;;;1.10;;
15425;SDS011;7812;50.072;7.036;2022-09-09T14:22:50;2.50;;;1.07;;
15425;SDS011;7812;50.072;7.036;2022-09-09T14:25:15;2.17;;;1.10;;
15425;SDS011;7812;50.072;7.036;2022-09-09T14:27:42;3.27;;;1.30;;
15425;SDS011;7812;50.072;7.036;2022-09-09T14:30:08;1.23;;;1.00;;
15425;SDS011;7812;50.072;7.036;2022-09-09T14:32:34;3.63;;;1.30;;
15425;SDS011;7812;50.072;7.036;2022-09-09T14:35:00;2.60;;;1.13;;
15425;SDS011;7812;50.072;7.036;2022-09-09T14:37:26;1.07;;;0.73;;
15425;SDS011;7812;50.072;7.036;2022-09-09T14:39:52;2.90;;;1.10;;
15425;SDS011;7812;50.072;7.036;2022-09-09T14:42:19;2.27;;;0.97;;
15425;SDS011;7812;50.072;7.036;2022-09-09T14:44:45;4.37;;;1.27;;
15425;SDS011;7812;50.072;7.036;2022-09-09T14:47:10;1.47;;;1.00;;
15425;SDS011;7812;50.072;7.036;2022-09-09T14:49:36;2.43;;;1.10;;
15425;SDS011;7812;50.072;7.036;2022-09-09T14:52:03;3.97;;;1.07;;
15425;SDS011;7812;50.072;7.036;2022-09-09T14:54:29;2.37;;;1.30;;
15425;SDS011;7812;50.072;7.036;2022-09-09T14:56:56;4.20;;;1.30;;
15425;SDS011;7812;50.072;7.036;2022-09-09T14:59:22;3.70;;;1.43;;
15425;SDS011;7812;50.072;7.036;2022-09-09T15:01:48;1.40;;;0.90;;
15425;SDS011;7812;50.072;7.036;2022-09-09T15:04:13;2.47;;;1.13;;
15425;SDS011;7812;50.072;7.036;2022-09-09T15:06:43;1.83;;;0.90;;
15425;SDS011;7812;50.072;7.036;2022-09-09T15:09:13;1.80;;;0.90;;
15425;SDS011;7812;50.072;7.036;2022-09-09T15:11:39;1.20;;;0.80;;
15425;SDS011;7812;50.072;7.036;2022-09-09T15:14:05;1.93;;;0.80;;
15425;SDS011;7812;50.072;7.036;2022-09-09T15:16:32;1.87;;;0.90;;
15425;SDS011;7812;50.072;7.036;2022-09-09T15:18:58;1.40;;;0.70;;
15425;SDS011;7812;50.072;7.036;2022-09-09T15:21:26;2.87;;;1.03;;
15425;SDS011;7812;50.072;7.036;2022-09-09T15:23:56;2.37;;;0.70;;
15425;SDS011;7812;50.072;7.036;2022-09-09T15:26:23;2.10;;;0.90;;
15425;SDS011;7812;50.072;7.036;2022-09-09T15:28:49;4.37;;;0.97;;
15425;SDS011;7812;50.072;7.036;2022-09-09T15:31:26;1.77;;;0.90;;
15425;SDS011;7812;50.072;7.036;2022-09-09T15:36:26;3.43;;;1.00;;
15425;SDS011;7812;50.072;7.036;2022-09-09T15:38:54;1.43;;;0.77;;
15425;SDS011;7812;50.072;7.036;2022-09-09T15:41:20;1.30;;;0.70;;
15425;SDS011;7812;50.072;7.036;2022-09-09T15:43:48;1.33;;;1.00;;
15425;SDS011;7812;50.072;7.036;2022-09-09T15:48:53;2.43;;;1.07;;
15425;SDS011;7812;50.072;7.036;2022-09-09T15:51:20;4.00;;;1.00;;
15425;SDS011;7812;50.072;7.036;2022-09-09T15:53:46;2.23;;;1.00;;
15425;SDS011;7812;50.072;7.036;2022-09-09T15:56:12;2.47;;;0.90;;
15425;SDS011;7812;50.072;7.036;2022-09-09T15:58:38;1.97;;;0.77;;
15425;SDS011;7812;50.072;7.036;2022-09-09T16:01:06;2.00;;;0.83;;
15425;SDS011;7812;50.072;7.036;2022-09-09T16:03:39;3.43;;;1.07;;
15425;SDS011;7812;50.072;7.036;2022-09-09T16:06:11;1.87;;;1.10;;
15425;SDS011;7812;50.072;7.036;2022-09-09T16:08:42;1.80;;;0.80;;
15425;SDS011;7812;50.072;7.036;2022-09-09T16:13:35;2.27;;;1.10;;
15425;SDS011;7812;50.072;7.036;2022-09-09T16:16:08;2.73;;;1.00;;
15425;SDS011;7812;50.072;7.036;2022-09-09T16:18:36;1.93;;;0.83;;
15425;SDS011;7812;50.072;7.036;2022-09-09T16:21:06;2.20;;;0.90;;
15425;SDS011;7812;50.072;7.036;2022-09-09T16:23:33;2.33;;;1.07;;
15425;SDS011;7812;50.072;7.036;2022-09-09T16:26:00;2.40;;;0.73;;
15425;SDS011;7812;50.072;7.036;2022-09-09T16:28:26;2.07;;;0.80;;
15425;SDS011;7812;50.072;7.036;2022-09-09T16:30:53;3.40;;;0.90;;
15425;SDS011;7812;50.072;7.036;2022-09-09T16:33:18;2.03;;;0.93;;
15425;SDS011;7812;50.072;7.036;2022-09-09T16:35:44;1.27;;;0.70;;
15425;SDS011;7812;50.072;7.036;2022-09-09T16:38:10;2.20;;;0.80;;
15425;SDS011;7812;50.072;7.036;2022-09-09T16:40:36;1.40;;;0.60;;
15425;SDS011;7812;50.072;7.036;2022-09-09T16:43:03;2.77;;;0.83;;
15425;SDS011;7812;50.072;7.036;2022-09-09T16:45:30;3.67;;;1.20;;
15425;SDS011;7812;50.072;7.036;2022-09-09T16:47:57;2.43;;;1.10;;
15425;SDS011;7812;50.072;7.036;2022-09-09T16:50:24;0.90;;;0.70;;
15425;SDS011;7812;50.072;7.036;2022-09-09T16:52:50;3.40;;;1.33;;
15425;SDS011;7812;50.072;7.036;2022-09-09T16:55:17;1.47;;;0.90;;
15425;SDS011;7812;50.072;7.036;2022-09-09T16:57:45;2.10;;;0.80;;
15425;SDS011;7812;50.072;7.036;2022-09-09T17:00:14;1.60;;;0.83;;
15425;SDS011;7812;50.072;7.036;2022-09-09T17:02:41;3.03;;;1.10;;
15425;SDS011;7812;50.072;7.036;2022-09-09T17:05:08;4.33;;;1.33;;
15425;SDS011;7812;50.072;7.036;2022-09-09T17:07:34;3.20;;;1.07;;
15425;SDS011;7812;50.072;7.036;2022-09-09T17:10:01;2.30;;;0.90;;
15425;SDS011;7812;50.072;7.036;2022-09-09T17:12:27;2.73;;;1.00;;
15425;SDS011;7812;50.072;7.036;2022-09-09T17:14:55;2.00;;;0.90;;
15425;SDS011;7812;50.072;7.036;2022-09-09T17:17:21;2.23;;;0.80;;
15425;SDS011;7812;50.072;7.036;2022-09-09T17:19:48;3.17;;;0.90;;
15425;SDS011;7812;50.072;7.036;2022-09-09T17:22:15;1.63;;;1.00;;
15425;SDS011;7812;50.072;7.036;2022-09-09T17:24:41;2.80;;;1.20;;
15425;SDS011;7812;50.072;7.036;2022-09-09T17:27:07;0.80;;;0.73;;
15425;SDS011;7812;50.072;7.036;2022-09-09T17:29:33;2.50;;;1.10;;
15425;SDS011;7812;50.072;7.036;2022-09-09T17:32:01;2.07;;;0.90;;
15425;SDS011;7812;50.072;7.036;2022-09-09T17:34:27;3.43;;;1.33;;
15425;SDS011;7812;50.072;7.036;2022-09-09T17:36:53;2.93;;;1.10;;
15425;SDS011;7812;50.072;7.036;2022-09-09T17:39:24;1.50;;;0.73;;
15425;SDS011;7812;50.072;7.036;2022-09-09T17:41:51;1.17;;;0.87;;
15425;SDS011;7812;50.072;7.036;2022-09-09T17:44:17;3.33;;;0.90;;
15425;SDS011;7812;50.072;7.036;2022-09-09T17:46:44;2.40;;;1.30;;
15425;SDS011;7812;50.072;7.036;2022-09-09T17:49:11;1.33;;;0.93;;
15425;SDS011;7812;50.072;7.036;2022-09-09T17:51:39;1.57;;;0.97;;
15425;SDS011;7812;50.072;7.036;2022-09-09T17:54:07;1.60;;;0.87;;
15425;SDS011;7812;50.072;7.036;2022-09-09T17:56:35;1.53;;;0.80;;
15425;SDS011;7812;50.072;7.036;2022-09-09T17:59:03;1.20;;;0.80;;
15425;SDS011;7812;50.072;7.036;2022-09-09T18:01:31;3.00;;;1.00;;
15425;SDS011;7812;50.072;7.036;2022-09-09T18:04:00;3.50;;;1.00;;
15425;SDS011;7812;50.072;7.036;2022-09-09T18:06:29;1.10;;;0.80;;
15425;SDS011;7812;50.072;7.036;2022-09-09T18:09:01;2.80;;;1.10;;
15425;SDS011;7812;50.072;7.036;2022-09-09T18:11:33;2.00;;;0.90;;